createdAt,value
2018-02-14T00:01:05.448Z,4.30
2018-02-14T00:04:08.736Z,5.05
2018-02-14T00:07:12.008Z,5.33
2018-02-14T00:10:26.880Z,5.72
2018-02-14T00:13:31.260Z,3.70
2018-02-14T00:16:34.525Z,4.47
2018-02-14T00:19:37.890Z,4.17
2018-02-14T00:22:50.647Z,4.50
2018-02-14T00:25:55.870Z,3.50
2018-02-14T00:28:59.265Z,3.00
2018-02-14T00:32:02.538Z,4.62
2018-02-14T00:35:06.671Z,3.58
2018-02-14T00:38:09.934Z,4.40
2018-02-14T00:41:13.972Z,4.77
2018-02-14T00:44:18.310Z,5.37
2018-02-14T00:47:21.665Z,4.83
2018-02-14T00:50:25.033Z,4.20
2018-02-14T00:53:28.305Z,3.83
2018-02-14T00:56:32.502Z,4.68
2018-02-14T00:59:36.544Z,4.10
2018-02-14T01:02:39.804Z,3.47
2018-02-14T01:05:43.167Z,3.87
2018-02-14T01:08:46.446Z,5.17
2018-02-14T01:11:49.722Z,3.62
2018-02-14T01:14:53.753Z,4.03
2018-02-14T01:17:57.025Z,3.17
2018-02-14T01:21:01.309Z,3.80
2018-02-14T01:24:04.681Z,4.80
2018-02-14T01:27:07.972Z,3.62
2018-02-14T01:30:11.253Z,3.83
2018-02-14T01:33:15.312Z,4.77
2018-02-14T01:36:18.591Z,4.23
2018-02-14T01:39:21.860Z,5.33
2018-02-14T01:42:25.155Z,4.47
2018-02-14T01:45:28.431Z,4.93
2018-02-14T01:48:31.729Z,4.03
2018-02-14T01:51:35.035Z,5.73
2018-02-14T01:54:39.095Z,4.40
2018-02-14T01:57:42.532Z,3.93
2018-02-14T02:00:45.824Z,3.93
2018-02-14T02:03:49.151Z,3.63
2018-02-14T02:06:53.188Z,4.37
2018-02-14T02:09:56.484Z,3.73
2018-02-14T02:12:59.760Z,3.97
2018-02-14T02:16:05.427Z,4.83
2018-02-14T02:19:08.689Z,4.95
2018-02-14T02:22:11.974Z,3.58
2018-02-14T02:25:15.259Z,3.17
2018-02-14T02:28:18.539Z,3.67
2018-02-14T02:31:21.807Z,3.57
2018-02-14T02:34:25.839Z,3.83
2018-02-14T02:37:29.114Z,3.67
2018-02-14T02:40:33.148Z,3.67
2018-02-14T02:43:36.424Z,4.65
2018-02-14T02:46:40.505Z,3.37
2018-02-14T02:49:43.777Z,5.07
2018-02-14T02:52:47.155Z,3.40
2018-02-14T02:55:50.490Z,2.97
2018-02-14T02:58:53.865Z,3.30
2018-02-14T03:01:57.416Z,3.83
2018-02-14T03:05:00.698Z,2.63
2018-02-14T03:08:03.973Z,2.93
2018-02-14T03:11:07.262Z,2.42
2018-02-14T03:14:10.558Z,3.45
2018-02-14T03:17:13.813Z,3.43
2018-02-14T03:20:17.855Z,3.05
2018-02-14T03:23:21.120Z,3.17
2018-02-14T03:26:24.408Z,2.77
2018-02-14T03:29:27.908Z,1.80
2018-02-14T03:32:31.196Z,2.63
2018-02-14T03:35:34.541Z,2.50
2018-02-14T03:38:38.715Z,3.07
2018-02-14T03:41:42.795Z,4.03
2018-02-14T03:44:46.176Z,3.87
2018-02-14T03:47:50.213Z,3.37
2018-02-14T03:50:53.487Z,2.50
2018-02-14T03:53:56.761Z,3.22
2018-02-14T03:57:00.039Z,3.03
2018-02-14T04:00:03.435Z,1.93
2018-02-14T04:03:06.779Z,2.83
2018-02-14T04:06:10.052Z,3.53
2018-02-14T04:09:13.324Z,2.70
2018-02-14T04:12:16.590Z,2.85
2018-02-14T04:15:19.855Z,3.03
2018-02-14T04:18:24.516Z,1.93
2018-02-14T04:21:27.811Z,3.85
2018-02-14T04:24:31.071Z,2.73
2018-02-14T04:27:34.398Z,1.77
2018-02-14T04:30:39.687Z,2.77
2018-02-14T04:33:42.952Z,2.23
2018-02-14T04:36:47.314Z,3.33
2018-02-14T04:39:50.651Z,2.87
2018-02-14T04:42:54.696Z,2.07
2018-02-14T04:45:58.012Z,2.37
2018-02-14T04:49:01.292Z,3.67
2018-02-14T04:52:04.590Z,3.43
2018-02-14T04:55:07.867Z,4.15
2018-02-14T04:58:11.163Z,3.50
2018-02-14T05:01:14.474Z,2.80
2018-02-14T05:04:17.769Z,1.97
2018-02-14T05:07:21.060Z,2.30
2018-02-14T05:10:24.342Z,2.17
2018-02-14T05:13:28.381Z,2.70
2018-02-14T05:16:31.674Z,2.90
2018-02-14T05:19:34.972Z,1.92
2018-02-14T05:22:38.249Z,2.73
2018-02-14T05:25:42.289Z,2.83
2018-02-14T05:28:45.574Z,2.35
2018-02-14T05:31:48.968Z,1.50
2018-02-14T05:34:53.024Z,2.17
2018-02-14T05:37:56.317Z,2.37
2018-02-14T05:40:59.738Z,3.08
2018-02-14T05:44:03.230Z,2.00
2018-02-14T05:47:06.513Z,2.97
2018-02-14T05:50:09.800Z,1.87
2018-02-14T05:53:13.208Z,1.47
2018-02-14T05:56:16.479Z,1.62
2018-02-14T05:59:19.740Z,1.30
2018-02-14T06:02:23.019Z,1.43
2018-02-14T06:05:26.279Z,1.73
2018-02-14T06:08:29.763Z,1.70
2018-02-14T06:11:33.811Z,1.65
2018-02-14T06:14:37.084Z,1.63
2018-02-14T06:17:40.403Z,1.50
2018-02-14T06:20:43.680Z,1.07
2018-02-14T06:23:47.021Z,1.40
2018-02-14T06:26:50.302Z,2.57
2018-02-14T06:29:53.672Z,3.70
2018-02-14T06:32:56.969Z,3.70
2018-02-14T06:36:00.758Z,3.15
2018-02-14T06:39:04.905Z,1.53
2018-02-14T06:42:08.318Z,2.83
2018-02-14T06:45:11.581Z,1.63
2018-02-14T06:48:15.687Z,2.57
2018-02-14T06:51:19.791Z,1.35
2018-02-14T06:54:23.072Z,2.77
2018-02-14T06:57:26.352Z,2.33
2018-02-14T07:00:29.732Z,2.13
2018-02-14T07:03:33.004Z,1.50
2018-02-14T07:06:37.070Z,3.22
2018-02-14T07:09:40.451Z,2.85
2018-02-14T07:12:43.760Z,2.20
2018-02-14T07:15:47.028Z,2.07
2018-02-14T07:18:50.300Z,2.15
2018-02-14T07:21:53.893Z,3.37
2018-02-14T07:24:57.164Z,4.13
2018-02-14T07:28:00.428Z,4.40
2018-02-14T07:31:03.852Z,3.70
2018-02-14T07:34:07.145Z,3.47
2018-02-14T07:37:10.540Z,2.15
2018-02-14T07:40:14.053Z,2.07
2018-02-14T07:43:17.430Z,2.43
2018-02-14T07:46:20.749Z,2.77
2018-02-14T07:49:25.536Z,2.70
2018-02-14T07:52:29.473Z,2.17
2018-02-14T07:55:32.916Z,1.87
2018-02-14T07:58:36.262Z,2.33
2018-02-14T08:01:39.571Z,2.05
2018-02-14T08:04:43.656Z,2.53
2018-02-14T08:07:48.838Z,2.45
2018-02-14T08:10:52.205Z,2.42
2018-02-14T08:13:55.473Z,2.30
2018-02-14T08:16:59.696Z,2.00
2018-02-14T08:20:03.132Z,2.12
2018-02-14T08:23:07.247Z,1.90
2018-02-14T08:26:11.286Z,3.47
2018-02-14T08:29:14.557Z,2.57
2018-02-14T08:32:18.625Z,2.85
2018-02-14T08:35:21.988Z,3.20
2018-02-14T08:38:25.293Z,1.93
2018-02-14T08:41:28.592Z,2.03
2018-02-14T08:44:31.889Z,1.97
2018-02-14T08:47:35.930Z,1.30
2018-02-14T08:50:39.300Z,1.63
2018-02-14T08:53:43.347Z,1.45
2018-02-14T08:56:46.643Z,1.80
2018-02-14T08:59:49.968Z,2.13
2018-02-14T09:02:54.169Z,1.63
2018-02-14T09:05:57.397Z,2.53
2018-02-14T09:09:00.684Z,1.67
2018-02-14T09:12:04.136Z,1.87
2018-02-14T09:15:08.341Z,2.58
2018-02-14T09:18:12.386Z,1.73
2018-02-14T09:21:15.661Z,1.97
2018-02-14T09:24:21.743Z,2.50
2018-02-14T09:27:25.073Z,1.75
2018-02-14T09:30:28.480Z,1.90
2018-02-14T09:33:31.774Z,2.00
2018-02-14T09:36:35.336Z,2.83
2018-02-14T09:39:38.682Z,2.13
2018-02-14T09:42:41.975Z,2.03
2018-02-14T09:45:45.234Z,2.70
2018-02-14T09:48:48.513Z,2.93
2018-02-14T09:51:52.572Z,2.30
2018-02-14T09:54:55.856Z,1.80
2018-02-14T09:57:59.175Z,2.23
2018-02-14T10:01:02.501Z,2.30
2018-02-14T10:04:05.809Z,2.40
2018-02-14T10:07:09.274Z,2.23
2018-02-14T10:10:12.559Z,2.23
2018-02-14T10:13:16.599Z,2.33
2018-02-14T10:16:19.932Z,1.90
2018-02-14T10:19:24.004Z,2.60
2018-02-14T10:22:28.106Z,2.37
2018-02-14T10:25:32.170Z,2.10
2018-02-14T10:28:35.440Z,1.93
2018-02-14T10:31:38.732Z,2.12
2018-02-14T10:34:42.041Z,2.10
2018-02-14T10:37:45.832Z,1.67
2018-02-14T10:40:49.945Z,2.23
2018-02-14T10:43:53.976Z,2.10
2018-02-14T10:46:57.276Z,1.87
2018-02-14T10:50:04.878Z,2.23
2018-02-14T10:53:08.190Z,1.60
2018-02-14T10:56:11.520Z,1.43
2018-02-14T10:59:15.672Z,2.27
2018-02-14T11:02:18.937Z,2.20
2018-02-14T11:05:28.939Z,1.97
2018-02-14T11:08:32.236Z,1.83
2018-02-14T11:11:35.585Z,2.15
2018-02-14T11:14:38.864Z,2.80
2018-02-14T11:17:42.168Z,2.43
2018-02-14T11:20:45.494Z,1.93
2018-02-14T11:23:48.764Z,2.43
2018-02-14T11:26:52.310Z,2.17
2018-02-14T11:29:55.667Z,2.30
2018-02-14T11:32:59.524Z,2.44
2018-02-14T11:36:03.040Z,2.55
2018-02-14T11:39:06.345Z,2.10
2018-02-14T11:42:09.742Z,2.10
2018-02-14T11:45:13.020Z,2.45
2018-02-14T11:48:17.129Z,1.97
2018-02-14T11:51:20.497Z,2.23
2018-02-14T11:54:24.257Z,2.37
2018-02-14T11:57:27.534Z,2.30
2018-02-14T12:00:31.584Z,2.13
2018-02-14T12:03:34.871Z,2.00
2018-02-14T12:06:38.172Z,2.33
2018-02-14T12:09:41.773Z,2.47
2018-02-14T12:12:45.452Z,1.67
2018-02-14T12:15:49.514Z,3.47
2018-02-14T12:18:54.260Z,2.20
2018-02-14T12:21:57.560Z,2.03
2018-02-14T12:25:00.970Z,2.53
2018-02-14T12:28:04.462Z,2.10
2018-02-14T12:31:07.767Z,2.70
2018-02-14T12:34:11.104Z,3.63
2018-02-14T12:37:15.146Z,3.17
2018-02-14T12:40:18.427Z,4.37
2018-02-14T12:43:21.724Z,3.70
2018-02-14T12:46:26.060Z,5.57
2018-02-14T12:49:30.181Z,4.12
2018-02-14T12:52:33.769Z,3.70
2018-02-14T12:55:37.093Z,2.83
2018-02-14T12:58:40.344Z,3.22
2018-02-14T13:01:44.385Z,3.60
2018-02-14T13:04:47.660Z,3.97
2018-02-14T13:07:50.917Z,3.53
2018-02-14T13:10:54.271Z,4.27
2018-02-14T13:13:58.317Z,3.83
2018-02-14T13:17:01.576Z,4.63
2018-02-14T13:20:05.961Z,4.60
2018-02-14T13:23:09.243Z,4.33
2018-02-14T13:26:12.496Z,5.37
2018-02-14T13:29:16.523Z,4.87
2018-02-14T13:32:20.705Z,5.23
2018-02-14T13:35:23.977Z,5.40
2018-02-14T13:38:27.262Z,4.45
2018-02-14T13:41:30.542Z,4.97
2018-02-14T13:44:33.851Z,4.83
2018-02-14T13:47:37.178Z,4.83
2018-02-14T13:50:40.454Z,5.00
2018-02-14T13:53:43.817Z,4.63
2018-02-14T13:56:47.840Z,4.47
2018-02-14T13:59:51.961Z,5.70
2018-02-14T14:02:55.250Z,4.63
2018-02-14T14:05:59.272Z,4.53
2018-02-14T14:09:02.735Z,4.93
2018-02-14T14:12:06.173Z,4.83
2018-02-14T14:15:09.470Z,5.37
2018-02-14T14:18:12.758Z,5.80
2018-02-14T14:21:16.084Z,4.80
2018-02-14T14:24:19.346Z,4.70
2018-02-14T14:27:23.379Z,5.40
2018-02-14T14:30:28.122Z,4.72
2018-02-14T14:33:31.421Z,5.43
2018-02-14T14:36:34.858Z,5.40
2018-02-14T14:39:38.162Z,4.77
2018-02-14T14:42:41.430Z,4.50
2018-02-14T14:45:44.704Z,5.28
2018-02-14T14:48:48.021Z,4.70
2018-02-14T14:51:52.071Z,5.17
2018-02-14T14:54:55.355Z,4.30
2018-02-14T14:57:58.610Z,4.87
2018-02-14T15:01:01.912Z,5.03
2018-02-14T15:04:05.308Z,5.07
2018-02-14T15:07:08.730Z,7.10
2018-02-14T15:10:12.116Z,6.07
2018-02-14T15:13:15.604Z,3.83
2018-02-14T15:16:19.644Z,4.47
2018-02-14T15:19:22.958Z,4.63
2018-02-14T15:22:26.234Z,5.47
2018-02-14T15:25:29.501Z,5.30
2018-02-14T15:28:33.612Z,5.90
2018-02-14T15:31:36.891Z,4.90
2018-02-14T15:34:40.156Z,5.50
2018-02-14T15:37:43.477Z,5.37
2018-02-14T15:40:46.741Z,6.50
2018-02-14T15:43:50.069Z,6.28
2018-02-14T15:46:53.376Z,7.20
2018-02-14T15:49:56.644Z,7.67
2018-02-14T15:53:00.136Z,6.23
2018-02-14T15:56:03.424Z,7.37
2018-02-14T15:59:06.834Z,6.50
2018-02-14T16:02:10.145Z,7.07
2018-02-14T16:05:13.540Z,7.07
2018-02-14T16:08:16.909Z,7.20
2018-02-14T16:11:21.372Z,8.03
2018-02-14T16:14:24.700Z,8.43
2018-02-14T16:17:28.345Z,8.33
2018-02-14T16:20:32.377Z,8.13
2018-02-14T16:23:35.658Z,6.83
2018-02-14T16:26:38.977Z,8.57
2018-02-14T16:29:42.304Z,7.60
2018-02-14T16:32:45.580Z,8.02
2018-02-14T16:35:48.974Z,7.27
2018-02-14T16:38:52.263Z,8.00
2018-02-14T16:41:55.584Z,8.97
2018-02-14T16:44:58.973Z,8.97
2018-02-14T16:48:02.260Z,9.47
2018-02-14T16:51:05.586Z,8.60
2018-02-14T16:54:08.856Z,8.93
2018-02-14T16:57:12.150Z,8.03
2018-02-14T17:00:15.450Z,9.70
2018-02-14T17:03:18.745Z,8.33
2018-02-14T17:06:22.991Z,8.57
2018-02-14T17:09:28.295Z,9.33
2018-02-14T17:12:31.917Z,9.23
2018-02-14T17:15:35.440Z,8.53
2018-02-14T17:18:39.512Z,9.73
2018-02-14T17:21:44.034Z,10.03
2018-02-14T17:24:48.129Z,12.60
2018-02-14T17:27:51.385Z,10.43
2018-02-14T17:30:54.656Z,11.50
2018-02-14T17:33:58.704Z,12.17
2018-02-14T17:37:01.986Z,9.13
2018-02-14T17:40:06.771Z,9.20
2018-02-14T17:43:10.057Z,9.43
2018-02-14T17:46:13.827Z,12.37
2018-02-14T17:49:17.418Z,12.00
2018-02-14T17:52:21.439Z,11.93
2018-02-14T17:55:24.736Z,11.53
2018-02-14T17:58:28.013Z,12.23
2018-02-14T18:01:33.312Z,11.33
2018-02-14T18:04:36.797Z,11.12
2018-02-14T18:07:40.126Z,13.57
2018-02-14T18:10:44.721Z,14.60
2018-02-14T18:13:48.032Z,12.90
2018-02-14T18:16:51.320Z,12.57
2018-02-14T18:19:55.579Z,15.37
2018-02-14T18:22:59.197Z,13.90
2018-02-14T18:26:03.188Z,15.02
2018-02-14T18:29:06.479Z,17.33
2018-02-14T18:32:09.825Z,14.97
2018-02-14T18:35:13.861Z,12.23
2018-02-14T18:38:17.138Z,11.13
2018-02-14T18:41:21.194Z,12.50
2018-02-14T18:44:24.482Z,12.13
2018-02-14T18:47:27.766Z,12.85
2018-02-14T18:50:31.058Z,11.10
2018-02-14T18:53:34.373Z,11.47
2018-02-14T18:56:37.674Z,11.57
2018-02-14T18:59:41.114Z,10.52
2018-02-14T19:02:44.500Z,10.27
2018-02-14T19:05:47.858Z,9.73
2018-02-14T19:08:51.192Z,10.18
2018-02-14T19:11:54.579Z,10.17
2018-02-14T19:14:57.848Z,11.23
2018-02-14T19:18:01.145Z,10.33
2018-02-14T19:21:04.587Z,11.15
2018-02-14T19:24:07.917Z,10.30
2018-02-14T19:27:11.993Z,13.23
2018-02-14T19:30:15.342Z,14.53
2018-02-14T19:33:19.393Z,14.97
2018-02-14T19:36:23.554Z,15.53
2018-02-14T19:39:27.622Z,14.37
2018-02-14T19:42:30.921Z,13.10
2018-02-14T19:45:36.151Z,13.60
2018-02-14T19:48:39.463Z,11.57
2018-02-14T19:51:42.764Z,11.20
2018-02-14T19:54:46.049Z,11.80
2018-02-14T19:57:49.873Z,11.57
2018-02-14T20:00:54.242Z,12.00
2018-02-14T20:03:57.532Z,12.50
2018-02-14T20:07:00.824Z,10.43
2018-02-14T20:10:05.213Z,10.87
2018-02-14T20:13:08.505Z,9.80
2018-02-14T20:16:11.796Z,11.33
2018-02-14T20:19:15.087Z,9.60
2018-02-14T20:22:18.417Z,8.73
2018-02-14T20:25:21.683Z,10.20
2018-02-14T20:28:24.972Z,10.43
2018-02-14T20:31:29.018Z,10.87
2018-02-14T20:34:32.328Z,10.67
2018-02-14T20:37:36.701Z,9.70
2018-02-14T20:40:40.742Z,12.97
2018-02-14T20:43:44.021Z,14.13
2018-02-14T20:46:48.110Z,9.83
2018-02-14T20:49:51.367Z,10.20
2018-02-14T20:52:54.688Z,9.67
2018-02-14T20:55:57.977Z,10.43
2018-02-14T20:59:01.268Z,8.38
2018-02-14T21:02:04.550Z,8.90
2018-02-14T21:05:07.841Z,8.40
2018-02-14T21:08:11.132Z,10.07
2018-02-14T21:11:14.449Z,7.37
2018-02-14T21:14:17.720Z,9.53
2018-02-14T21:17:21.018Z,7.53
2018-02-14T21:20:24.305Z,8.53
2018-02-14T21:23:28.348Z,7.70
2018-02-14T21:26:31.612Z,7.47
2018-02-14T21:29:35.753Z,8.73
2018-02-14T21:32:39.082Z,8.13
2018-02-14T21:35:42.370Z,7.95
2018-02-14T21:38:45.640Z,7.33
2018-02-14T21:41:48.924Z,9.00
2018-02-14T21:44:52.973Z,7.30
2018-02-14T21:47:56.245Z,7.37
2018-02-14T21:51:00.318Z,6.87
2018-02-14T21:54:03.589Z,7.80
2018-02-14T21:57:06.869Z,6.85
2018-02-14T22:00:10.150Z,5.97
2018-02-14T22:03:14.251Z,7.18
2018-02-14T22:06:17.553Z,5.67
2018-02-14T22:09:21.596Z,8.13
2018-02-14T22:12:24.869Z,4.23
2018-02-14T22:15:28.917Z,6.07
2018-02-14T22:18:32.180Z,5.97
2018-02-14T22:21:36.317Z,4.17
2018-02-14T22:24:43.822Z,5.57
2018-02-14T22:27:47.120Z,5.57
2018-02-14T22:30:51.088Z,6.60
2018-02-14T22:33:54.368Z,4.63
2018-02-14T22:36:57.653Z,5.43
2018-02-14T22:40:01.693Z,4.33
2018-02-14T22:43:04.959Z,5.37
2018-02-14T22:46:08.244Z,5.17
2018-02-14T22:49:11.550Z,5.17
2018-02-14T22:52:14.850Z,5.03
2018-02-14T22:55:18.152Z,6.80
2018-02-14T22:58:22.032Z,5.67
2018-02-14T23:01:25.309Z,5.47
2018-02-14T23:04:29.336Z,5.27
2018-02-14T23:07:33.386Z,3.77
2018-02-14T23:10:36.649Z,4.07
2018-02-14T23:13:41.973Z,4.83
2018-02-14T23:16:45.260Z,4.45
2018-02-14T23:19:48.533Z,4.00
2018-02-14T23:22:51.829Z,5.77
2018-02-14T23:25:55.119Z,4.77
2018-02-14T23:28:58.481Z,5.13
2018-02-14T23:32:02.530Z,4.83
2018-02-14T23:35:05.837Z,4.40
2018-02-14T23:38:09.915Z,4.53
2018-02-14T23:41:13.952Z,4.60
2018-02-14T23:44:18.306Z,5.05
2018-02-14T23:47:21.583Z,4.12
2018-02-14T23:50:24.866Z,5.87
2018-02-14T23:53:28.139Z,5.27
2018-02-14T23:56:32.179Z,4.67
2018-02-14T23:59:35.491Z,4.07
